createdAt,value
2016-08-17T00:00:01.350Z,6.04
2016-08-17T00:00:10.107Z,6.03
2016-08-17T00:00:18.851Z,-39.99
2016-08-17T00:00:27.592Z,-39.99
2016-08-17T00:00:36.314Z,-39.99
2016-08-17T00:00:45.038Z,6.06
2016-08-17T00:00:53.783Z,5.98
2016-08-17T00:01:02.594Z,6.04
2016-08-17T00:01:11.348Z,6.04
2016-08-17T00:01:20.021Z,6
2016-08-17T00:01:28.775Z,6
2016-08-17T00:01:37.530Z,6.03
2016-08-17T00:01:46.278Z,5.96
2016-08-17T00:01:55.069Z,6
2016-08-17T00:02:03.826Z,6.04
2016-08-17T00:02:12.521Z,6.06
2016-08-17T00:02:21.260Z,6.1
2016-08-17T00:02:29.963Z,6.11
2016-08-17T00:02:38.712Z,6.01
2016-08-17T00:02:47.414Z,6.09
2016-08-17T00:02:56.203Z,6.1
2016-08-17T00:03:05.018Z,6.01
2016-08-17T00:03:14.493Z,6.1
2016-08-17T00:03:23.231Z,6.03
2016-08-17T00:03:32.025Z,6.06
2016-08-17T00:03:40.779Z,6.01
2016-08-17T00:03:49.541Z,6.13
2016-08-17T00:03:58.276Z,6.03
2016-08-17T00:04:06.976Z,6.04
2016-08-17T00:04:15.787Z,5.98
2016-08-17T00:04:24.564Z,6.01
2016-08-17T00:04:33.350Z,6.06
2016-08-17T00:04:42.132Z,6.01
2016-08-17T00:04:51.608Z,6.01
2016-08-17T00:05:00.400Z,6.14
2016-08-17T00:05:09.095Z,6.07
2016-08-17T00:05:18.476Z,6.09
2016-08-17T00:05:27.215Z,6.07
2016-08-17T00:05:35.924Z,6.07
2016-08-17T00:05:44.684Z,6.14
2016-08-17T00:05:53.372Z,6.16
2016-08-17T00:06:02.140Z,6.13
2016-08-17T00:06:10.891Z,6.07
2016-08-17T00:06:19.625Z,6.09
2016-08-17T00:06:28.337Z,6.11
2016-08-17T00:06:37.081Z,6.18
2016-08-17T00:06:45.777Z,6.07
2016-08-17T00:06:54.506Z,6.06
2016-08-17T00:07:03.223Z,6.14
2016-08-17T00:07:12.630Z,6.09
2016-08-17T00:07:21.388Z,6.13
2016-08-17T00:07:30.081Z,6.1
2016-08-17T00:07:38.822Z,6.16
2016-08-17T00:07:47.613Z,6.11
2016-08-17T00:07:56.398Z,6.11
2016-08-17T00:08:05.160Z,6.13
2016-08-17T00:08:13.887Z,6.07
2016-08-17T00:08:22.626Z,6.07
2016-08-17T00:08:31.375Z,6.1
2016-08-17T00:08:40.085Z,6.16
2016-08-17T00:08:48.834Z,6.13
2016-08-17T00:08:58.254Z,6.13
2016-08-17T00:09:06.971Z,6.13
2016-08-17T00:09:15.758Z,6.13
2016-08-17T00:09:24.466Z,6.13
2016-08-17T00:09:33.223Z,6.13
2016-08-17T00:09:41.989Z,6.18
2016-08-17T00:09:50.726Z,6.16
2016-08-17T00:09:59.458Z,6.13
2016-08-17T00:10:08.177Z,6.18
2016-08-17T00:10:17.619Z,6.16
2016-08-17T00:10:26.314Z,6.1
2016-08-17T00:10:35.070Z,6.11
2016-08-17T00:10:43.771Z,6.07
2016-08-17T00:10:52.501Z,6.13
2016-08-17T00:11:01.249Z,6.11
2016-08-17T00:11:09.955Z,6.11
2016-08-17T00:11:18.737Z,6.09
2016-08-17T00:11:27.512Z,6.16
2016-08-17T00:11:36.217Z,6.1
2016-08-17T00:11:44.953Z,6.14
2016-08-17T00:11:53.696Z,6.13
2016-08-17T00:12:02.461Z,6.13
2016-08-17T00:12:11.186Z,6.13
2016-08-17T00:12:19.945Z,6.11
2016-08-17T00:12:28.709Z,6.13
2016-08-17T00:12:37.492Z,6.09
2016-08-17T00:12:46.234Z,6.19
2016-08-17T00:12:54.995Z,6.14
2016-08-17T00:13:03.787Z,6.14
2016-08-17T00:13:12.526Z,6.1
2016-08-17T00:13:21.239Z,6.1
2016-08-17T00:13:29.971Z,6.16
2016-08-17T00:13:38.663Z,6.1
2016-08-17T00:13:47.389Z,6.13
2016-08-17T00:13:56.079Z,6.14
2016-08-17T00:14:05.443Z,6.13
2016-08-17T00:14:14.256Z,6.13
2016-08-17T00:14:23.046Z,6.14
2016-08-17T00:14:31.793Z,6.1
2016-08-17T00:14:40.512Z,6.13
2016-08-17T00:14:49.256Z,6.13
2016-08-17T00:14:57.951Z,6.14
2016-08-17T00:15:06.669Z,6.11
2016-08-17T00:15:15.429Z,6.18
2016-08-17T00:15:24.166Z,6.1
2016-08-17T00:15:32.892Z,6.09
2016-08-17T00:15:41.640Z,6.1
2016-08-17T00:15:50.433Z,6.13
2016-08-17T00:15:59.169Z,6.1
2016-08-17T00:16:07.897Z,6.13
2016-08-17T00:16:16.619Z,6.11
2016-08-17T00:16:25.349Z,6.11
2016-08-17T00:16:34.129Z,6.1
2016-08-17T00:16:42.881Z,6.1
2016-08-17T00:16:51.667Z,6.19
2016-08-17T00:17:00.334Z,6.14
2016-08-17T00:17:09.097Z,6.21
2016-08-17T00:17:17.830Z,6.11
2016-08-17T00:17:26.627Z,6.16
2016-08-17T00:17:35.351Z,6.26
2016-08-17T00:17:44.138Z,6.26
2016-08-17T00:17:52.908Z,6.11
2016-08-17T00:18:01.703Z,6.16
2016-08-17T00:18:10.463Z,6.09
2016-08-17T00:18:19.204Z,6.14
2016-08-17T00:18:27.929Z,6.16
2016-08-17T00:18:36.628Z,6.13
2016-08-17T00:18:46.053Z,6.13
2016-08-17T00:18:55.445Z,6.11
2016-08-17T00:19:04.142Z,6.16
2016-08-17T00:19:13.497Z,6.11
2016-08-17T00:19:22.258Z,6.11
2016-08-17T00:19:31.657Z,6.09
2016-08-17T00:19:40.380Z,6.16
2016-08-17T00:19:49.186Z,6.21
2016-08-17T00:19:57.979Z,6.13
2016-08-17T00:20:06.725Z,6.22
2016-08-17T00:20:15.463Z,6.25
2016-08-17T00:20:24.274Z,6.26
2016-08-17T00:20:33.038Z,6.25
2016-08-17T00:20:41.765Z,6.26
2016-08-17T00:20:50.527Z,-39.99
2016-08-17T00:20:59.213Z,6.26
2016-08-17T00:21:07.967Z,6.26
2016-08-17T00:21:16.732Z,6.22
2016-08-17T00:21:25.429Z,6.26
2016-08-17T00:21:34.091Z,6.29
2016-08-17T00:21:42.833Z,6.29
2016-08-17T00:21:51.554Z,6.21
2016-08-17T00:22:00.280Z,6.28
2016-08-17T00:22:09.016Z,6.3
2016-08-17T00:22:17.733Z,6.3
2016-08-17T00:22:26.445Z,6.29
2016-08-17T00:22:35.178Z,6.3
2016-08-17T00:22:43.902Z,6.19
2016-08-17T00:22:52.688Z,6.33
2016-08-17T00:23:01.399Z,6.22
2016-08-17T00:23:10.125Z,6.3
2016-08-17T00:23:18.842Z,6.29
2016-08-17T00:23:27.555Z,6.28
2016-08-17T00:23:36.974Z,6.28
2016-08-17T00:23:45.694Z,6.19
2016-08-17T00:23:54.445Z,6.29
2016-08-17T00:24:03.151Z,6.32
2016-08-17T00:24:11.903Z,6.28
2016-08-17T00:24:20.644Z,6.26
2016-08-17T00:24:29.353Z,6.26
2016-08-17T00:24:38.134Z,6.28
2016-08-17T00:24:46.827Z,6.28
2016-08-17T00:24:55.551Z,6.33
2016-08-17T00:25:04.324Z,6.29
2016-08-17T00:25:13.074Z,6.22
2016-08-17T00:25:21.784Z,6.29
2016-08-17T00:25:30.599Z,6.29
2016-08-17T00:25:39.293Z,6.36
2016-08-17T00:25:47.962Z,6.29
2016-08-17T00:25:56.734Z,6.21
2016-08-17T00:26:05.512Z,6.28
2016-08-17T00:26:14.213Z,6.29
2016-08-17T00:26:22.968Z,6.25
2016-08-17T00:26:31.722Z,6.29
2016-08-17T00:26:40.424Z,6.26
2016-08-17T00:26:49.153Z,6.28
2016-08-17T00:26:57.868Z,6.32
2016-08-17T00:27:06.578Z,6.21
2016-08-17T00:27:15.294Z,6.3
2016-08-17T00:27:24.009Z,6.25
2016-08-17T00:27:32.705Z,6.22
2016-08-17T00:27:42.088Z,6.22
2016-08-17T00:27:51.477Z,6.22
2016-08-17T00:28:00.193Z,6.16
2016-08-17T00:28:08.899Z,6.1
2016-08-17T00:28:17.624Z,6.19
2016-08-17T00:28:26.352Z,6.07
2016-08-17T00:28:35.097Z,6.22
2016-08-17T00:28:43.807Z,6.19
2016-08-17T00:28:52.525Z,6.1
2016-08-17T00:29:01.195Z,6.28
2016-08-17T00:29:09.926Z,6.19
2016-08-17T00:29:18.640Z,6.21
2016-08-17T00:29:27.370Z,6.22
2016-08-17T00:29:36.086Z,6.19
2016-08-17T00:29:44.759Z,6.26
2016-08-17T00:29:53.508Z,6.1
2016-08-17T00:30:02.218Z,6.21
2016-08-17T00:30:10.931Z,6.21
2016-08-17T00:30:19.635Z,6.09
2016-08-17T00:30:28.322Z,6.13
2016-08-17T00:30:37.014Z,6.19
2016-08-17T00:30:45.776Z,6.09
2016-08-17T00:30:54.457Z,6.18
2016-08-17T00:31:03.185Z,6.22
2016-08-17T00:31:11.936Z,6.19
2016-08-17T00:31:20.678Z,6.25
2016-08-17T00:31:29.358Z,6.19
2016-08-17T00:31:38.035Z,6.19
2016-08-17T00:31:46.721Z,-39.99
2016-08-17T00:31:55.415Z,6.13
2016-08-17T00:32:04.120Z,6.22
2016-08-17T00:32:12.802Z,6.25
2016-08-17T00:32:21.535Z,6.19
2016-08-17T00:32:30.302Z,-39.99
2016-08-17T00:32:39.026Z,6.29
2016-08-17T00:32:47.772Z,-39.99
2016-08-17T00:32:56.489Z,-39.99
2016-08-17T00:33:05.208Z,-39.99
2016-08-17T00:33:13.952Z,6.29
2016-08-17T00:33:22.631Z,-39.99
2016-08-17T00:33:31.320Z,6.13
2016-08-17T00:33:40.775Z,6.26
2016-08-17T00:33:50.183Z,6.13
2016-08-17T00:33:58.879Z,6.09
2016-08-17T00:34:07.557Z,6.14
2016-08-17T00:34:16.255Z,6.22
2016-08-17T00:34:24.969Z,6.18
2016-08-17T00:34:33.664Z,6.1
2016-08-17T00:34:42.345Z,6.14
2016-08-17T00:34:51.089Z,6.13
2016-08-17T00:34:59.822Z,6.19
2016-08-17T00:35:08.568Z,6.25
2016-08-17T00:35:17.312Z,6.11
2016-08-17T00:35:26.034Z,6.22
2016-08-17T00:35:34.712Z,6.26
2016-08-17T00:35:43.454Z,6.22
2016-08-17T00:35:52.155Z,6.29
2016-08-17T00:36:00.903Z,6.26
2016-08-17T00:36:09.589Z,-39.99
2016-08-17T00:36:18.313Z,6.21
2016-08-17T00:36:27.030Z,6.3
2016-08-17T00:36:35.712Z,6.22
2016-08-17T00:36:44.422Z,6.25
2016-08-17T00:36:53.113Z,6.22
2016-08-17T00:37:01.860Z,-39.99
2016-08-17T00:37:10.576Z,-39.99
2016-08-17T00:37:19.256Z,-39.99
2016-08-17T00:37:27.979Z,6.21
2016-08-17T00:37:36.756Z,-39.99
2016-08-17T00:37:45.416Z,-39.99
2016-08-17T00:37:54.097Z,-39.99
2016-08-17T00:38:02.835Z,-39.99
2016-08-17T00:38:11.552Z,-39.99
2016-08-17T00:38:20.296Z,-39.99
2016-08-17T00:38:28.998Z,-39.99
2016-08-17T00:38:37.735Z,-39.99
2016-08-17T00:38:46.468Z,-39.99
2016-08-17T00:38:55.185Z,-39.99
2016-08-17T00:39:03.886Z,-39.99
2016-08-17T00:39:12.586Z,-39.99
2016-08-17T00:39:21.317Z,-39.99
2016-08-17T00:39:30.022Z,-39.99
2016-08-17T00:39:38.745Z,-39.99
2016-08-17T00:39:47.430Z,-39.99
2016-08-17T00:39:56.111Z,-39.99
2016-08-17T00:40:04.833Z,-39.99
2016-08-17T00:40:13.535Z,-39.99
2016-08-17T00:40:22.225Z,-39.99
2016-08-17T00:40:30.925Z,-39.99
2016-08-17T00:40:39.624Z,-39.99
2016-08-17T00:40:48.334Z,-39.99
2016-08-17T00:40:57.073Z,-39.99
2016-08-17T00:41:05.817Z,-39.99
2016-08-17T00:41:14.538Z,-39.99
2016-08-17T00:41:23.292Z,-39.99
2016-08-17T00:41:32.670Z,-39.99
2016-08-17T00:41:41.390Z,-39.99
2016-08-17T00:41:50.145Z,-39.99
2016-08-17T00:41:59.569Z,-39.99
2016-08-17T00:42:08.244Z,-39.99
2016-08-17T00:42:16.929Z,-39.99
2016-08-17T00:42:25.608Z,-39.99
2016-08-17T00:42:34.328Z,-39.99
2016-08-17T00:42:43.001Z,-39.99
2016-08-17T00:42:51.661Z,-39.99
2016-08-17T00:43:00.380Z,-39.99
2016-08-17T00:43:09.047Z,-39.99
2016-08-17T00:43:17.762Z,-39.99
2016-08-17T00:43:26.446Z,-39.99
2016-08-17T00:43:35.148Z,-39.99
2016-08-17T00:43:43.865Z,-39.99
2016-08-17T00:43:52.537Z,-39.99
2016-08-17T00:44:01.263Z,-39.99
2016-08-17T00:44:09.975Z,-39.99
2016-08-17T00:44:18.738Z,-39.99
2016-08-17T00:44:27.450Z,-39.99
2016-08-17T00:44:36.170Z,-39.99
2016-08-17T00:44:44.879Z,-39.99
2016-08-17T00:44:53.587Z,-39.99
2016-08-17T00:45:02.312Z,-39.99
2016-08-17T00:45:11.032Z,-39.99
2016-08-17T00:45:19.731Z,6.13
2016-08-17T00:45:28.434Z,6.13
2016-08-17T00:45:37.123Z,6.22
2016-08-17T00:45:45.804Z,6.21
2016-08-17T00:45:54.531Z,6.22
2016-08-17T00:46:03.252Z,6.21
2016-08-17T00:46:11.953Z,6.18
2016-08-17T00:46:20.657Z,6.13
2016-08-17T00:46:29.398Z,6.21
2016-08-17T00:46:38.137Z,6.25
2016-08-17T00:46:46.818Z,6.1
2016-08-17T00:46:55.569Z,6.25
2016-08-17T00:47:04.292Z,6.09
2016-08-17T00:47:13.003Z,6.1
2016-08-17T00:47:21.695Z,6.09
2016-08-17T00:47:30.429Z,6.13
2016-08-17T00:47:39.117Z,6.13
2016-08-17T00:47:47.857Z,6.11
2016-08-17T00:47:56.573Z,6.16
2016-08-17T00:48:05.242Z,6.13
2016-08-17T00:48:13.931Z,6.09
2016-08-17T00:48:22.671Z,6.11
2016-08-17T00:48:31.358Z,6.13
2016-08-17T00:48:40.763Z,6.14
2016-08-17T00:48:49.436Z,6.16
2016-08-17T00:48:58.171Z,6.14
2016-08-17T00:49:06.878Z,6.11
2016-08-17T00:49:15.617Z,6.16
2016-08-17T00:49:24.351Z,6.1
2016-08-17T00:49:33.065Z,6.14
2016-08-17T00:49:41.805Z,6.1
2016-08-17T00:49:50.505Z,6.09
2016-08-17T00:49:59.224Z,6.09
2016-08-17T00:50:08.587Z,6.18
2016-08-17T00:50:17.318Z,6.13
2016-08-17T00:50:26.033Z,6.13
2016-08-17T00:50:34.767Z,6.1
2016-08-17T00:50:43.494Z,6.13
2016-08-17T00:50:52.210Z,6.11
2016-08-17T00:51:00.901Z,6.13
2016-08-17T00:51:09.650Z,6.09
2016-08-17T00:51:18.358Z,6.18
2016-08-17T00:51:27.110Z,6.11
2016-08-17T00:51:35.829Z,6.16
2016-08-17T00:51:44.562Z,6.13
2016-08-17T00:51:53.298Z,6.09
2016-08-17T00:52:02.022Z,6.11
2016-08-17T00:52:10.718Z,6.14
2016-08-17T00:52:19.471Z,6.16
2016-08-17T00:52:28.211Z,6.14
2016-08-17T00:52:36.915Z,6.13
2016-08-17T00:52:45.673Z,6.11
2016-08-17T00:52:54.387Z,6.14
2016-08-17T00:53:03.062Z,6.1
2016-08-17T00:53:11.764Z,6.06
2016-08-17T00:53:20.466Z,6.14
2016-08-17T00:53:29.195Z,6.06
2016-08-17T00:53:37.916Z,6.11
2016-08-17T00:53:46.653Z,6.11
2016-08-17T00:53:55.349Z,6.11
2016-08-17T00:54:04.092Z,6.11
2016-08-17T00:54:12.836Z,6.1
2016-08-17T00:54:21.550Z,6.11
2016-08-17T00:54:30.287Z,6.14
2016-08-17T00:54:39.025Z,6.11
2016-08-17T00:54:47.713Z,6.14
2016-08-17T00:54:56.444Z,6.11
2016-08-17T00:55:05.140Z,6.09
2016-08-17T00:55:13.867Z,6.16
2016-08-17T00:55:22.580Z,6.07
2016-08-17T00:55:31.287Z,6.14
2016-08-17T00:55:39.994Z,6.13
2016-08-17T00:55:48.708Z,6.11
2016-08-17T00:55:57.456Z,6.14
2016-08-17T00:56:06.199Z,6.09
2016-08-17T00:56:14.859Z,6
2016-08-17T00:56:23.547Z,6.06
2016-08-17T00:56:32.305Z,6.07
2016-08-17T00:56:41.022Z,6
2016-08-17T00:56:49.746Z,6.01
2016-08-17T00:56:58.428Z,6
2016-08-17T00:57:07.174Z,6.03
2016-08-17T00:57:15.854Z,6.11
2016-08-17T00:57:24.552Z,6.03
2016-08-17T00:57:33.235Z,6.04
2016-08-17T00:57:41.980Z,6.03
2016-08-17T00:57:50.704Z,6.03
2016-08-17T00:57:59.388Z,5.98
2016-08-17T00:58:08.131Z,6.07
2016-08-17T00:58:16.790Z,6.03
2016-08-17T00:58:25.496Z,6.04
2016-08-17T00:58:34.240Z,6.04
2016-08-17T00:58:42.949Z,6.04
2016-08-17T00:58:51.697Z,6.07
2016-08-17T00:59:00.429Z,6
2016-08-17T00:59:09.155Z,6.06
2016-08-17T00:59:17.842Z,6.04
2016-08-17T00:59:26.516Z,6.01
2016-08-17T00:59:35.229Z,6
2016-08-17T00:59:43.952Z,6.03
2016-08-17T00:59:52.668Z,6.04
2016-08-17T01:00:01.378Z,6.04
2016-08-17T01:00:10.101Z,6.07
2016-08-17T01:00:18.848Z,6.07
2016-08-17T01:00:27.564Z,6
2016-08-17T01:00:36.275Z,6.07
2016-08-17T01:00:44.942Z,6.03
2016-08-17T01:00:53.629Z,6.03
2016-08-17T01:01:02.329Z,6.04
2016-08-17T01:01:11.077Z,6.01
2016-08-17T01:01:19.846Z,6.07
2016-08-17T01:01:28.582Z,6.06
2016-08-17T01:01:37.307Z,5.96
2016-08-17T01:01:46.040Z,6
2016-08-17T01:01:54.751Z,5.95
2016-08-17T01:02:03.448Z,6.07
2016-08-17T01:02:12.170Z,5.98
2016-08-17T01:02:20.901Z,6.01
2016-08-17T01:02:29.622Z,6
2016-08-17T01:02:38.358Z,6.03
2016-08-17T01:02:47.084Z,6.06
2016-08-17T01:02:55.806Z,6.06
2016-08-17T01:03:04.521Z,-39.99
2016-08-17T01:03:13.251Z,-39.99
2016-08-17T01:03:21.976Z,6.04
2016-08-17T01:03:30.674Z,6.1
2016-08-17T01:03:39.353Z,6.03
2016-08-17T01:03:48.032Z,6.03
2016-08-17T01:03:56.735Z,6.01
2016-08-17T01:04:05.439Z,6.01
2016-08-17T01:04:14.779Z,6.07
2016-08-17T01:04:23.458Z,6.06
2016-08-17T01:04:32.196Z,6.06
2016-08-17T01:04:40.960Z,6.04
2016-08-17T01:04:49.697Z,6.04
2016-08-17T01:04:58.427Z,6
2016-08-17T01:05:07.160Z,6.01
2016-08-17T01:05:15.910Z,6.04
2016-08-17T01:05:24.660Z,6.03
2016-08-17T01:05:33.394Z,6
2016-08-17T01:05:42.138Z,6.04
2016-08-17T01:05:50.901Z,6.11
2016-08-17T01:05:59.628Z,5.96
2016-08-17T01:06:08.368Z,6
2016-08-17T01:06:17.119Z,6.1
2016-08-17T01:06:25.842Z,6.07
2016-08-17T01:06:34.600Z,6.09
2016-08-17T01:06:43.303Z,6.01
2016-08-17T01:06:51.985Z,6.09
2016-08-17T01:07:00.664Z,6.09
2016-08-17T01:07:09.404Z,6.11
2016-08-17T01:07:18.114Z,6.06
2016-08-17T01:07:26.868Z,6.06
2016-08-17T01:07:35.546Z,6.06
2016-08-17T01:07:44.281Z,6.06
2016-08-17T01:07:53.025Z,6.09
2016-08-17T01:08:01.761Z,6
2016-08-17T01:08:10.469Z,6.09
2016-08-17T01:08:19.235Z,6.04
2016-08-17T01:08:27.929Z,6.04
2016-08-17T01:08:36.632Z,6.1
2016-08-17T01:08:45.352Z,6.11
2016-08-17T01:08:54.080Z,6.06
2016-08-17T01:09:02.828Z,6.09
2016-08-17T01:09:11.542Z,6.01
2016-08-17T01:09:20.242Z,6.13
2016-08-17T01:09:28.901Z,6.11
2016-08-17T01:09:37.636Z,6.1
2016-08-17T01:09:46.337Z,6.1
2016-08-17T01:09:55.046Z,6.09
2016-08-17T01:10:03.787Z,6.13
2016-08-17T01:10:12.536Z,6.09
2016-08-17T01:10:21.251Z,6.09
2016-08-17T01:10:29.982Z,6.11
2016-08-17T01:10:38.733Z,6.04
2016-08-17T01:10:47.394Z,6.1
2016-08-17T01:10:56.126Z,6.04
2016-08-17T01:11:04.840Z,6.11
2016-08-17T01:11:13.543Z,6.13
2016-08-17T01:11:22.241Z,6.07
2016-08-17T01:11:30.976Z,6.13
2016-08-17T01:11:39.705Z,6.13
2016-08-17T01:11:48.401Z,6.16
2016-08-17T01:11:57.120Z,6.13
2016-08-17T01:12:06.561Z,6.13
2016-08-17T01:12:15.274Z,6.18
2016-08-17T01:12:23.975Z,6.19
2016-08-17T01:12:32.727Z,-39.99
2016-08-17T01:12:41.467Z,6.06
2016-08-17T01:12:50.185Z,6.1
2016-08-17T01:12:58.848Z,-39.99
2016-08-17T01:13:07.547Z,6.07
2016-08-17T01:13:16.270Z,6.01
2016-08-17T01:13:24.995Z,6.07
2016-08-17T01:13:33.713Z,6.04
2016-08-17T01:13:42.429Z,6.03
2016-08-17T01:13:51.808Z,6.09
2016-08-17T01:14:00.527Z,6.04
2016-08-17T01:14:09.233Z,6.03
2016-08-17T01:14:17.955Z,5.95
2016-08-17T01:14:26.652Z,6.07
2016-08-17T01:14:35.369Z,6
2016-08-17T01:14:44.062Z,5.95
2016-08-17T01:14:52.816Z,6.06
2016-08-17T01:15:01.534Z,6.03
2016-08-17T01:15:10.264Z,5.96
2016-08-17T01:15:18.975Z,6.06
2016-08-17T01:15:27.672Z,6.04
2016-08-17T01:15:36.401Z,6.04
2016-08-17T01:15:45.123Z,6.03
2016-08-17T01:15:53.809Z,6.01
2016-08-17T01:16:02.531Z,6.01
2016-08-17T01:16:11.291Z,6.11
2016-08-17T01:16:19.975Z,6.11
2016-08-17T01:16:28.682Z,6.06
2016-08-17T01:16:37.380Z,-39.99
2016-08-17T01:16:46.089Z,6.09
2016-08-17T01:16:54.794Z,6.09
2016-08-17T01:17:03.495Z,6.09
2016-08-17T01:17:12.169Z,6.01
2016-08-17T01:17:20.872Z,6
2016-08-17T01:17:29.622Z,6.11
2016-08-17T01:17:38.366Z,6.01
2016-08-17T01:17:47.103Z,6.04
2016-08-17T01:17:55.821Z,6.09
2016-08-17T01:18:04.518Z,6.1
2016-08-17T01:18:13.227Z,6.07
2016-08-17T01:18:21.973Z,6.07
2016-08-17T01:18:30.695Z,6.09
2016-08-17T01:18:39.385Z,6.09
2016-08-17T01:18:48.137Z,6.09
2016-08-17T01:18:56.889Z,6.14
2016-08-17T01:19:05.630Z,6.06
2016-08-17T01:19:14.347Z,6.1
2016-08-17T01:19:23.067Z,6.11
2016-08-17T01:19:31.726Z,6.07
2016-08-17T01:19:40.410Z,6.07
2016-08-17T01:19:49.103Z,6.11
2016-08-17T01:19:58.532Z,6.1
2016-08-17T01:20:07.248Z,6.16
2016-08-17T01:20:15.936Z,6.11
2016-08-17T01:20:24.663Z,6.07
2016-08-17T01:20:33.330Z,6.1
2016-08-17T01:20:42.061Z,6.11
2016-08-17T01:20:50.756Z,6.16
2016-08-17T01:20:59.463Z,6.11
2016-08-17T01:21:08.123Z,6.1
2016-08-17T01:21:16.812Z,6.09
2016-08-17T01:21:25.505Z,-39.99
2016-08-17T01:21:34.223Z,-39.99
2016-08-17T01:21:42.997Z,-39.99
2016-08-17T01:21:52.407Z,6.13
2016-08-17T01:22:01.131Z,-39.99
2016-08-17T01:22:09.875Z,-39.99
2016-08-17T01:22:18.580Z,-39.99
2016-08-17T01:22:27.272Z,-39.99
2016-08-17T01:22:35.986Z,-39.99
2016-08-17T01:22:44.665Z,-39.99
2016-08-17T01:22:53.353Z,-39.99
2016-08-17T01:23:02.073Z,-39.99
2016-08-17T01:23:10.769Z,6.09
2016-08-17T01:23:19.470Z,6.1
2016-08-17T01:23:28.171Z,6.14
2016-08-17T01:23:36.882Z,6.13
2016-08-17T01:23:45.554Z,-39.99
2016-08-17T01:23:54.255Z,-39.99
2016-08-17T01:24:02.955Z,-39.99
2016-08-17T01:24:11.641Z,-39.99
2016-08-17T01:24:20.368Z,-39.99
2016-08-17T01:24:29.124Z,-39.99
2016-08-17T01:24:39.255Z,-39.99
2016-08-17T01:24:48.652Z,-39.99
2016-08-17T01:24:57.372Z,-39.99
2016-08-17T01:25:06.082Z,-39.99
2016-08-17T01:25:14.776Z,-39.99
2016-08-17T01:25:23.477Z,-39.99
2016-08-17T01:25:32.176Z,-39.99
2016-08-17T01:25:40.885Z,-39.99
2016-08-17T01:25:49.610Z,-39.99
2016-08-17T01:25:58.331Z,-39.99
2016-08-17T01:26:07.056Z,-39.99
2016-08-17T01:26:15.776Z,-39.99
2016-08-17T01:26:24.479Z,-39.99
2016-08-17T01:26:33.203Z,-39.99
2016-08-17T01:26:41.903Z,-39.99
2016-08-17T01:26:50.612Z,-39.99
2016-08-17T01:26:59.359Z,-39.99
2016-08-17T01:27:08.066Z,-39.99
2016-08-17T01:27:16.812Z,-39.99
2016-08-17T01:27:25.504Z,-39.99
2016-08-17T01:27:34.226Z,-39.99
2016-08-17T01:27:42.956Z,-39.99
2016-08-17T01:27:51.679Z,-39.99
2016-08-17T01:28:00.381Z,-39.99
2016-08-17T01:28:09.127Z,-39.99
2016-08-17T01:28:17.831Z,-39.99
2016-08-17T01:28:26.554Z,-39.99
2016-08-17T01:28:35.283Z,-39.99
2016-08-17T01:28:44.005Z,-39.99
2016-08-17T01:28:53.435Z,-39.99
2016-08-17T01:29:02.149Z,-39.99
2016-08-17T01:29:10.909Z,-39.99
2016-08-17T01:29:19.588Z,-39.99
2016-08-17T01:29:28.286Z,-39.99
2016-08-17T01:29:37.018Z,-39.99
2016-08-17T01:29:45.769Z,-39.99
2016-08-17T01:29:54.477Z,-39.99
2016-08-17T01:30:03.195Z,-39.99
2016-08-17T01:30:11.935Z,-39.99
2016-08-17T01:30:20.610Z,-39.99
2016-08-17T01:30:29.294Z,-39.99
2016-08-17T01:30:38.006Z,-39.99
2016-08-17T01:30:46.721Z,-39.99
2016-08-17T01:30:55.404Z,-39.99
2016-08-17T01:31:04.127Z,-39.99
2016-08-17T01:31:12.886Z,-39.99
2016-08-17T01:31:21.594Z,-39.99
2016-08-17T01:31:30.309Z,-39.99
2016-08-17T01:31:39.032Z,-39.99
2016-08-17T01:31:48.414Z,-39.99
2016-08-17T01:31:57.114Z,-39.99
2016-08-17T01:32:05.840Z,-39.99
2016-08-17T01:32:14.542Z,-39.99
2016-08-17T01:32:23.243Z,-39.99
2016-08-17T01:32:31.908Z,-39.99
2016-08-17T01:32:40.672Z,-39.99
2016-08-17T01:32:49.416Z,-39.99
2016-08-17T01:32:58.141Z,-39.99
2016-08-17T01:33:06.865Z,-39.99
2016-08-17T01:33:15.580Z,-39.99
2016-08-17T01:33:24.273Z,-39.99
2016-08-17T01:33:32.957Z,-39.99
2016-08-17T01:33:42.380Z,-39.99
2016-08-17T01:33:51.072Z,-39.99
2016-08-17T01:33:59.790Z,-39.99
2016-08-17T01:34:08.513Z,-39.99
2016-08-17T01:34:17.233Z,-39.99
2016-08-17T01:34:25.965Z,-39.99
2016-08-17T01:34:34.683Z,-39.99
2016-08-17T01:34:43.453Z,-39.99
2016-08-17T01:34:52.198Z,-39.99
2016-08-17T01:35:00.931Z,-39.99
2016-08-17T01:35:09.616Z,-39.99
2016-08-17T01:35:18.303Z,-39.99
2016-08-17T01:35:26.990Z,-39.99
2016-08-17T01:35:35.736Z,-39.99
2016-08-17T01:35:44.423Z,-39.99
2016-08-17T01:35:53.145Z,-39.99
2016-08-17T01:36:01.822Z,-39.99
2016-08-17T01:36:10.544Z,-39.99
2016-08-17T01:36:19.252Z,-39.99
2016-08-17T01:36:27.947Z,-39.99
2016-08-17T01:36:36.664Z,-39.99
2016-08-17T01:36:45.412Z,-39.99
2016-08-17T01:36:54.134Z,-39.99
2016-08-17T01:37:03.581Z,-39.99
2016-08-17T01:37:12.312Z,-39.99
2016-08-17T01:37:21.031Z,-39.99
2016-08-17T01:37:29.760Z,-39.99
2016-08-17T01:37:38.458Z,-39.99
2016-08-17T01:37:47.849Z,-39.99
2016-08-17T01:37:56.557Z,-39.99
2016-08-17T01:38:05.269Z,-39.99
2016-08-17T01:38:13.984Z,-39.99
2016-08-17T01:38:22.707Z,-39.99
2016-08-17T01:38:31.426Z,-39.99
2016-08-17T01:38:40.158Z,-39.99
2016-08-17T01:38:48.832Z,-39.99
2016-08-17T01:38:57.560Z,-39.99
2016-08-17T01:39:06.299Z,-39.99
2016-08-17T01:39:15.042Z,5.64
2016-08-17T01:39:23.736Z,5.74
2016-08-17T01:39:32.488Z,5.63
2016-08-17T01:39:41.173Z,5.7
2016-08-17T01:39:49.901Z,5.66
2016-08-17T01:39:58.615Z,5.66
2016-08-17T01:40:07.311Z,5.7
2016-08-17T01:40:16.017Z,5.57
2016-08-17T01:40:24.723Z,5.59
2016-08-17T01:40:33.427Z,5.6
2016-08-17T01:40:42.177Z,5.67
2016-08-17T01:40:50.862Z,5.6
2016-08-17T01:40:59.597Z,5.68
2016-08-17T01:41:08.300Z,5.57
2016-08-17T01:41:16.968Z,5.73
2016-08-17T01:41:25.649Z,5.63
2016-08-17T01:41:34.349Z,5.71
2016-08-17T01:41:43.070Z,-39.99
2016-08-17T01:41:51.767Z,-39.99
2016-08-17T01:42:00.446Z,-39.99
2016-08-17T01:42:09.175Z,-39.99
2016-08-17T01:42:17.890Z,-39.99
2016-08-17T01:42:26.591Z,-39.99
2016-08-17T01:42:35.316Z,-39.99
2016-08-17T01:42:44.048Z,-39.99
2016-08-17T01:42:52.777Z,-39.99
2016-08-17T01:43:01.520Z,-39.99
2016-08-17T01:43:10.900Z,-39.99
2016-08-17T01:43:19.645Z,-39.99
2016-08-17T01:43:28.360Z,-39.99
2016-08-17T01:43:37.096Z,-39.99
2016-08-17T01:43:45.813Z,-39.99
2016-08-17T01:43:54.505Z,-39.99
2016-08-17T01:44:03.237Z,-39.99
2016-08-17T01:44:11.926Z,-39.99
2016-08-17T01:44:20.635Z,-39.99
2016-08-17T01:44:29.347Z,-39.99
2016-08-17T01:44:38.029Z,-39.99
2016-08-17T01:44:46.740Z,-39.99
2016-08-17T01:44:55.455Z,-39.99
2016-08-17T01:45:04.164Z,-39.99
2016-08-17T01:45:12.901Z,-39.99
2016-08-17T01:45:21.607Z,-39.99
2016-08-17T01:45:30.355Z,-39.99
2016-08-17T01:45:39.090Z,-39.99
2016-08-17T01:45:47.800Z,-39.99
2016-08-17T01:45:56.507Z,-39.99
2016-08-17T01:46:05.266Z,-39.99
2016-08-17T01:46:13.973Z,-39.99
2016-08-17T01:46:22.710Z,-39.99
2016-08-17T01:46:31.419Z,-39.99
2016-08-17T01:46:40.092Z,-39.99
2016-08-17T01:46:48.781Z,-39.99
2016-08-17T01:46:57.540Z,-39.99
2016-08-17T01:47:06.287Z,-39.99
2016-08-17T01:47:14.989Z,-39.99
2016-08-17T01:47:23.676Z,-39.99
2016-08-17T01:47:32.391Z,-39.99
2016-08-17T01:47:41.098Z,-39.99
2016-08-17T01:47:49.832Z,-39.99
2016-08-17T01:47:58.521Z,-39.99
2016-08-17T01:48:07.197Z,-39.99
2016-08-17T01:48:15.931Z,-39.99
2016-08-17T01:48:24.604Z,-39.99
2016-08-17T01:48:33.358Z,-39.99
2016-08-17T01:48:42.101Z,-39.99
2016-08-17T01:48:50.866Z,-39.99
2016-08-17T01:48:59.581Z,-39.99
2016-08-17T01:49:08.264Z,-39.99
2016-08-17T01:49:17.004Z,-39.99
2016-08-17T01:49:25.743Z,-39.99
2016-08-17T01:49:34.474Z,-39.99
2016-08-17T01:49:43.858Z,-39.99
2016-08-17T01:49:52.573Z,-39.99
2016-08-17T01:50:01.276Z,-39.99
2016-08-17T01:50:10.003Z,-39.99
2016-08-17T01:50:18.733Z,-39.99
2016-08-17T01:50:27.424Z,-39.99
2016-08-17T01:50:36.150Z,5.5
2016-08-17T01:50:44.816Z,-39.99
2016-08-17T01:50:53.544Z,5.57
2016-08-17T01:51:02.247Z,5.59
2016-08-17T01:51:10.932Z,5.57
2016-08-17T01:51:19.654Z,5.55
2016-08-17T01:51:28.381Z,5.56
2016-08-17T01:51:37.079Z,5.57
2016-08-17T01:51:45.806Z,5.56
2016-08-17T01:51:54.530Z,5.64
2016-08-17T01:52:03.944Z,5.55
2016-08-17T01:52:12.876Z,5.53
2016-08-17T01:52:21.598Z,5.53
2016-08-17T01:52:30.324Z,5.52
2016-08-17T01:52:39.047Z,5.57
2016-08-17T01:52:47.784Z,5.56
2016-08-17T01:52:56.514Z,5.55
2016-08-17T01:53:05.242Z,5.53
2016-08-17T01:53:13.981Z,5.55
2016-08-17T01:53:22.649Z,5.55
2016-08-17T01:53:31.385Z,5.48
2016-08-17T01:53:40.107Z,5.53
2016-08-17T01:53:48.816Z,5.5
2016-08-17T01:53:57.525Z,5.49
2016-08-17T01:54:06.243Z,5.48
2016-08-17T01:54:14.932Z,5.53
2016-08-17T01:54:23.637Z,5.52
2016-08-17T01:54:32.368Z,5.49